createdAt,value
2022-09-24T00:01:20.510Z,10.01
2022-09-24T00:13:20.998Z,10.09
2022-09-24T00:25:21.390Z,10.79
2022-09-24T00:37:21.883Z,10.51
2022-09-24T00:49:22.311Z,10.54
2022-09-24T01:01:22.817Z,10.77
2022-09-24T01:13:23.187Z,10.47
2022-09-24T01:25:23.658Z,10.60
2022-09-24T01:37:24.135Z,10.60
2022-09-24T01:49:24.607Z,10.39
2022-09-24T02:01:25.119Z,10.28
2022-09-24T02:13:25.449Z,9.99
2022-09-24T02:25:25.916Z,9.78
2022-09-24T02:37:26.399Z,9.78
2022-09-24T02:49:26.807Z,10.04
2022-09-24T03:01:27.340Z,9.78
2022-09-24T03:13:27.736Z,9.50
2022-09-24T03:25:28.192Z,9.76
2022-09-24T03:37:28.651Z,9.02
2022-09-24T03:49:29.114Z,9.39
2022-09-24T04:01:29.599Z,9.34
2022-09-24T04:13:30.027Z,9.29
2022-09-24T04:25:30.453Z,9.00
2022-09-24T04:37:30.900Z,9.31
2022-09-24T04:49:31.355Z,8.64
2022-09-24T05:01:31.966Z,9.03
2022-09-24T05:13:32.277Z,9.02
2022-09-24T05:25:32.725Z,9.41
2022-09-24T05:37:33.164Z,9.48
2022-09-24T05:49:33.641Z,10.04
2022-09-24T06:01:34.138Z,9.95
2022-09-24T06:13:34.511Z,10.67
2022-09-24T06:25:34.969Z,11.06
2022-09-24T06:37:35.453Z,11.40
2022-09-24T06:49:35.889Z,11.55
2022-09-24T07:01:36.460Z,12.12
2022-09-24T07:13:36.807Z,14.04
2022-09-24T07:25:37.267Z,14.85
2022-09-24T07:37:37.701Z,16.10
2022-09-24T07:49:38.170Z,16.95
2022-09-24T08:01:38.720Z,17.30
2022-09-24T08:13:39.105Z,17.82
2022-09-24T08:25:39.514Z,17.97
2022-09-24T08:37:39.926Z,18.56
2022-09-24T08:49:40.431Z,18.85
2022-09-24T09:01:40.965Z,20.98
2022-09-24T09:13:41.296Z,20.68
2022-09-24T09:25:41.753Z,20.77
2022-09-24T09:37:42.226Z,21.54
2022-09-24T09:49:42.713Z,21.19
2022-09-24T10:01:43.205Z,21.55
2022-09-24T10:13:43.609Z,21.68
2022-09-24T10:25:44.059Z,21.78
2022-09-24T10:37:44.537Z,22.48
2022-09-24T10:49:44.976Z,21.64
2022-09-24T11:01:45.775Z,22.25
2022-09-24T11:13:50.456Z,21.43
2022-09-24T11:25:46.347Z,21.80
2022-09-24T11:37:46.773Z,22.28
2022-09-24T11:49:47.242Z,22.87
2022-09-24T12:01:47.827Z,23.74
2022-09-24T12:13:48.168Z,22.48
2022-09-24T12:25:48.617Z,23.83
2022-09-24T12:37:49.064Z,23.30
2022-09-24T12:49:49.531Z,22.48
2022-09-24T13:01:50.083Z,24.22
2022-09-24T13:13:50.433Z,22.65
2022-09-24T13:25:50.890Z,23.43
2022-09-24T13:37:51.313Z,23.74
2022-09-24T13:49:51.820Z,22.48
2022-09-24T14:01:52.302Z,23.15
2022-09-24T14:13:52.691Z,24.62
2022-09-24T14:25:53.157Z,23.65
2022-09-24T14:37:53.655Z,23.26
2022-09-24T14:49:54.080Z,23.15
2022-09-24T15:01:54.562Z,22.56
2022-09-24T15:13:54.988Z,22.38
2022-09-24T15:25:55.477Z,22.13
2022-09-24T15:37:55.908Z,21.21
2022-09-24T15:49:56.341Z,20.71
2022-09-24T16:01:56.902Z,20.62
2022-09-24T16:13:57.288Z,20.54
2022-09-24T16:25:57.709Z,20.20
2022-09-24T16:37:58.148Z,19.26
2022-09-24T16:49:58.656Z,19.32
2022-09-24T17:01:59.115Z,18.90
2022-09-24T17:13:59.541Z,18.76
2022-09-24T17:25:59.977Z,18.46
2022-09-24T17:38:00.459Z,18.04
2022-09-24T17:50:00.875Z,17.80
2022-09-24T18:02:01.515Z,17.78
2022-09-24T18:14:01.829Z,17.72
2022-09-24T18:26:09.753Z,17.48
2022-09-24T18:38:02.783Z,17.34
2022-09-24T18:50:03.266Z,17.17
2022-09-24T19:02:03.901Z,16.74
2022-09-24T19:14:04.117Z,16.11
2022-09-24T19:26:04.542Z,15.64
2022-09-24T19:38:04.973Z,15.75
2022-09-24T19:50:05.668Z,15.64
2022-09-24T20:02:06.004Z,15.38
2022-09-24T20:14:06.715Z,15.05
2022-09-24T20:26:06.784Z,14.92
2022-09-24T20:38:07.256Z,14.77
2022-09-24T20:50:07.701Z,14.05
2022-09-24T21:02:08.237Z,12.78
2022-09-24T21:14:08.657Z,14.57
2022-09-24T21:26:09.068Z,14.63
2022-09-24T21:38:09.522Z,14.53
2022-09-24T21:50:09.987Z,14.39
2022-09-24T22:02:10.502Z,14.26
2022-09-24T22:14:10.919Z,14.07
2022-09-24T22:26:11.349Z,13.41
2022-09-24T22:38:11.794Z,13.71
2022-09-24T22:50:12.231Z,13.68
2022-09-24T23:02:13.507Z,13.38
2022-09-24T23:14:13.701Z,13.16
2022-09-24T23:26:16.469Z,13.14
2022-09-24T23:38:14.066Z,13.19
2022-09-24T23:50:14.485Z,12.99
